Time;durP1;ratioP1;P1;durP2;ratioP2;P2;SDS_P1;SDS_P2;PMS_P1;PMS_P2;Temp;Humidity;BMP_temperature;BMP_pressure;BME280_temperature;BME280_humidity;BME280_pressure;Samples;Min_cycle;Max_cycle;Signal;HPM_P1;HPM_P2
2022/11/04 00:01:44;;;;;;;10.55;7.18;;;11.30;99.20;;;;;;5000744;28;20053;-71
2022/11/04 00:04:12;;;;;;;11.95;7.20;;;11.30;99.30;;;;;;5002029;28;20396;-69
2022/11/04 00:06:38;;;;;;;11.18;7.45;;;11.30;99.30;;;;;;5005245;28;20512;-69
2022/11/04 00:09:06;;;;;;;12.05;6.82;;;11.20;99.30;;;;;;5005968;28;20042;-69
2022/11/04 00:14:18;;;;;;;9.80;6.53;;;11.20;99.40;;;;;;5006987;28;20456;-69
2022/11/04 00:28:41;;;;;;;16.23;6.68;;;11.10;99.50;;;;;;5005466;28;20485;-70
2022/11/04 00:30:09;;;;;;;15.90;7.10;;;11.10;99.70;;;;;;5004436;28;20489;-69
2022/11/04 00:35:21;;;;;;;10.85;7.18;;;11.10;99.80;;;;;;5004563;28;20552;-70
2022/11/04 00:37:46;;;;;;;13.95;7.50;;;11.00;99.80;;;;;;5008013;28;20388;-69
2022/11/04 00:40:14;;;;;;;11.95;8.00;;;11.00;99.90;;;;;;5005263;28;20034;-69
2022/11/04 00:42:42;;;;;;;14.95;7.32;;;11.00;99.90;;;;;;5004958;28;20044;-70
2022/11/04 00:45:08;;;;;;;10.32;7.13;;;11.00;99.90;;;;;;5003504;28;20033;-69
2022/11/04 00:47:34;;;;;;;14.93;7.32;;;10.90;99.90;;;;;;5004601;28;20033;-69
2022/11/04 00:50:02;;;;;;;13.68;8.00;;;10.90;99.90;;;;;;5003712;28;20042;-69
2022/11/04 00:52:27;;;;;;;12.65;7.72;;;10.90;99.90;;;;;;5003199;28;20113;-68
2022/11/04 00:54:53;;;;;;;9.95;7.28;;;10.90;99.90;;;;;;5005557;28;20104;-69
2022/11/04 00:57:19;;;;;;;11.35;6.95;;;10.90;99.90;;;;;;5005792;28;20216;-69
2022/11/04 00:59:45;;;;;;;14.05;7.95;;;10.90;99.90;;;;;;5005278;28;20108;-69
2022/11/04 01:02:12;;;;;;;15.63;8.20;;;10.90;99.90;;;;;;5001539;28;20108;-70
2022/11/04 01:04:38;;;;;;;13.70;8.32;;;10.90;99.90;;;;;;5005448;28;20025;-69
2022/11/04 01:07:03;;;;;;;13.40;7.57;;;10.90;99.90;;;;;;5003534;28;20033;-70
2022/11/04 01:09:29;;;;;;;11.85;7.53;;;10.90;99.90;;;;;;5006454;28;20068;-70
2022/11/04 01:11:57;;;;;;;12.95;8.38;;;10.90;99.90;;;;;;5004894;28;20264;-70
2022/11/04 01:14:22;;;;;;;12.25;6.88;;;10.80;99.90;;;;;;5008853;28;20084;-70
2022/11/04 01:16:49;;;;;;;12.68;6.97;;;10.80;99.90;;;;;;5005830;28;20033;-70
2022/11/04 01:19:16;;;;;;;10.75;7.95;;;10.80;99.90;;;;;;5002066;28;20034;-69
2022/11/04 01:21:42;;;;;;;12.23;7.95;;;10.80;99.90;;;;;;5004516;28;20022;-70
2022/11/04 01:24:07;;;;;;;10.70;7.38;;;10.80;99.90;;;;;;5003850;28;20523;-69
2022/11/04 01:26:33;;;;;;;13.65;7.38;;;10.80;99.90;;;;;;5003532;28;20394;-69
2022/11/04 01:28:59;;;;;;;13.23;8.10;;;10.70;99.90;;;;;;5002767;28;20044;-69
2022/11/04 01:31:30;;;;;;;14.05;6.65;;;10.70;99.90;;;;;;5009927;28;20587;-69
2022/11/04 01:33:57;;;;;;;11.85;6.75;;;10.70;99.90;;;;;;5003093;28;20032;-70
2022/11/04 01:36:23;;;;;;;12.63;6.93;;;10.70;99.90;;;;;;5001980;28;20065;-69
2022/11/04 01:38:49;;;;;;;10.02;6.43;;;10.70;99.90;;;;;;5004055;28;20022;-69
2022/11/04 01:41:28;;;;;;;10.93;6.82;;;10.70;99.90;;;;;;5003474;28;20080;-70
2022/11/04 01:43:59;;;;;;;10.23;7.22;;;10.70;99.90;;;;;;5002603;28;20046;-70
2022/11/04 01:46:37;;;;;;;11.70;7.10;;;10.70;99.90;;;;;;5004316;28;20117;-70
2022/11/04 01:49:17;;;;;;;12.52;8.05;;;10.80;99.90;;;;;;5002729;28;20030;-70
2022/11/04 01:51:45;;;;;;;10.52;6.93;;;10.80;99.90;;;;;;5005269;28;20117;-70
2022/11/04 01:54:12;;;;;;;13.27;8.20;;;10.80;99.90;;;;;;5002415;28;20045;-70
2022/11/04 01:56:40;;;;;;;12.73;7.70;;;10.80;99.90;;;;;;5004394;28;20038;-70
2022/11/04 01:59:11;;;;;;;9.63;7.07;;;10.80;99.90;;;;;;5004729;28;20393;-70
2022/11/04 02:01:36;;;;;;;13.20;7.82;;;10.80;99.90;;;;;;5004571;28;20500;-70
2022/11/04 02:06:49;;;;;;;12.00;7.43;;;10.80;99.90;;;;;;5003911;28;20545;-71
2022/11/04 02:09:16;;;;;;;13.68;8.73;;;10.80;99.90;;;;;;5004022;28;20044;-70
2022/11/04 02:14:26;;;;;;;13.00;8.40;;;10.80;99.90;;;;;;4999548;28;20064;-71
2022/11/04 02:17:00;;;;;;;15.05;8.48;;;10.70;99.90;;;;;;5003391;28;20054;-70
2022/11/04 02:19:48;;;;;;;11.95;7.65;;;10.80;99.90;;;;;;5001043;28;20026;-70
2022/11/04 02:22:43;;;;;;;12.20;7.47;;;10.70;99.90;;;;;;5002391;28;20096;-71
2022/11/04 02:25:09;;;;;;;13.90;8.45;;;10.70;99.90;;;;;;4999631;28;20034;-70
2022/11/04 02:27:49;;;;;;;14.48;8.85;;;10.70;99.90;;;;;;5002722;28;20043;-71
2022/11/04 02:30:19;;;;;;;11.80;7.97;;;10.70;99.90;;;;;;5001572;28;20157;-71
2022/11/04 02:32:54;;;;;;;11.52;8.07;;;10.70;99.90;;;;;;5003772;28;20124;-71
2022/11/04 02:35:39;;;;;;;;;;;10.70;99.90;;;;;;5004341;28;20033;-70
2022/11/04 02:38:20;;;;;;;13.02;7.38;;;10.70;99.90;;;;;;5004131;28;19917;-71
2022/11/04 02:41:13;;;;;;;12.55;7.75;;;10.60;99.90;;;;;;4999761;28;20080;-71
2022/11/04 02:43:50;;;;;;;13.82;7.07;;;10.60;99.90;;;;;;5018311;28;20042;-71
2022/11/04 02:46:35;;;;;;;11.85;8.15;;;10.60;99.90;;;;;;5000490;28;20042;-70
2022/11/04 02:49:11;;;;;;;10.00;7.13;;;10.60;99.90;;;;;;5002111;28;20113;-69
2022/11/04 02:51:51;;;;;;;11.20;8.02;;;10.60;99.90;;;;;;4998441;28;20046;-70
2022/11/04 02:54:29;;;;;;;12.35;7.57;;;10.60;99.90;;;;;;5002138;28;20421;-70
2022/11/04 02:56:58;;;;;;;14.68;8.10;;;10.50;99.90;;;;;;5003822;28;20038;-70
2022/11/04 02:59:34;;;;;;;15.02;8.27;;;10.60;99.90;;;;;;4999565;28;20040;-70
2022/11/04 03:02:03;;;;;;;12.43;8.25;;;10.50;99.90;;;;;;5003488;28;20057;-70
2022/11/04 03:04:36;;;;;;;15.85;8.05;;;10.50;99.90;;;;;;5003506;28;20025;-70
2022/11/04 03:07:07;;;;;;;12.20;7.72;;;10.60;99.90;;;;;;5004699;28;20045;-70
2022/11/04 03:09:35;;;;;;;13.02;8.82;;;10.50;99.90;;;;;;5004687;28;20040;-70
2022/11/04 03:12:13;;;;;;;12.35;7.40;;;10.50;99.90;;;;;;5002466;28;20559;-69
2022/11/04 03:14:48;;;;;;;10.95;7.45;;;10.50;99.90;;;;;;5002987;28;20112;-69
2022/11/04 03:17:28;;;;;;;11.70;8.07;;;10.50;99.90;;;;;;5000723;28;20029;-69
2022/11/04 03:19:58;;;;;;;12.95;8.23;;;10.50;99.90;;;;;;5002520;28;20117;-70
2022/11/04 03:22:28;;;;;;;14.85;8.50;;;10.60;99.90;;;;;;5002665;28;20030;-70
2022/11/04 03:24:54;;;;;;;15.05;8.02;;;10.60;99.90;;;;;;5003055;28;20053;-70
2022/11/04 03:27:52;;;;;;;11.07;8.20;;;10.50;99.90;;;;;;5003011;28;20033;-71
2022/11/04 03:30:21;;;;;;;12.30;8.38;;;10.50;99.90;;;;;;5000001;28;20106;-70
2022/11/04 03:33:17;;;;;;;12.65;8.35;;;10.60;99.90;;;;;;5002974;28;20033;-68
2022/11/04 03:35:42;;;;;;;;;;;10.50;99.90;;;;;;5004289;28;20034;-69
2022/11/04 03:38:08;;;;;;;13.05;7.85;;;10.50;99.90;;;;;;5004496;28;19913;-69
2022/11/04 03:40:34;;;;;;;13.35;8.80;;;10.50;99.90;;;;;;5003488;28;20096;-69
2022/11/04 03:43:14;;;;;;;13.77;7.68;;;10.50;99.90;;;;;;5004422;28;20125;-70
2022/11/04 03:45:40;;;;;;;13.15;8.18;;;10.50;99.90;;;;;;5006287;28;20050;-70
2022/11/04 03:48:07;;;;;;;10.77;7.38;;;10.60;99.90;;;;;;5004295;28;20041;-70
2022/11/04 03:50:42;;;;;;;12.68;8.68;;;10.60;99.90;;;;;;5004227;28;20021;-69
2022/11/04 03:53:10;;;;;;;12.93;7.85;;;10.60;99.90;;;;;;5004321;28;20030;-70
2022/11/04 03:55:43;;;;;;;12.85;7.85;;;10.60;99.90;;;;;;5002292;28;20488;-70
2022/11/04 03:58:23;;;;;;;11.23;7.72;;;10.70;99.90;;;;;;5005667;28;20116;-70
2022/11/04 04:00:57;;;;;;;12.95;8.20;;;10.70;99.90;;;;;;5005314;28;20041;-69
2022/11/04 04:03:35;;;;;;;11.35;7.63;;;10.70;99.90;;;;;;5008217;28;20037;-70
2022/11/04 04:06:10;;;;;;;14.77;8.88;;;10.70;99.90;;;;;;5006952;28;20029;-70
2022/11/04 04:08:59;;;;;;;15.13;8.30;;;10.70;99.90;;;;;;5004601;28;20045;-69
2022/11/04 04:11:30;;;;;;;12.93;8.50;;;10.80;99.90;;;;;;5009027;28;20049;-69
2022/11/04 04:14:39;;;;;;;15.82;8.13;;;10.80;99.90;;;;;;5004454;28;20037;-69
2022/11/04 04:17:21;;;;;;;12.52;8.57;;;10.80;99.90;;;;;;5004885;28;20046;-69
2022/11/04 04:19:58;;;;;;;12.48;8.82;;;10.80;99.90;;;;;;5005283;28;20113;-70
2022/11/04 04:22:46;;;;;;;14.07;8.45;;;10.80;99.90;;;;;;5005105;28;20026;-69
2022/11/04 04:28:06;;;;;;;10.52;8.23;;;10.80;99.90;;;;;;5002448;28;20104;-69
2022/11/04 04:30:33;;;;;;;15.90;8.68;;;10.80;99.90;;;;;;5006521;28;20049;-69
2022/11/04 04:33:07;;;;;;;12.00;8.73;;;10.90;99.90;;;;;;5002714;28;20021;-70
2022/11/04 04:35:51;;;;;;;12.65;8.43;;;10.90;99.90;;;;;;5006855;28;20065;-70
2022/11/04 04:47:18;;;;;;;12.73;8.75;;;10.90;99.90;;;;;;5005507;28;20030;-70
2022/11/04 04:49:56;;;;;;;19.35;9.65;;;10.90;99.90;;;;;;5005132;28;20044;-70
2022/11/04 04:52:24;;;;;;;12.35;8.88;;;10.90;99.90;;;;;;5003736;28;20468;-70
2022/11/04 04:54:49;;;;;;;12.70;8.50;;;10.90;99.90;;;;;;5005742;28;20472;-70
2022/11/04 04:57:15;;;;;;;14.15;9.48;;;10.90;99.90;;;;;;5003768;28;20080;-69
2022/11/04 04:59:41;;;;;;;14.10;8.82;;;11.00;99.90;;;;;;5005326;28;20025;-70
2022/11/04 05:02:07;;;;;;;10.48;8.10;;;11.00;99.90;;;;;;5006135;28;20026;-70
2022/11/04 05:04:32;;;;;;;13.00;8.48;;;11.00;99.90;;;;;;5003967;28;20646;-69
2022/11/04 05:06:58;;;;;;;11.70;8.23;;;11.00;99.90;;;;;;5005189;28;20042;-70
2022/11/04 05:09:24;;;;;;;11.65;8.77;;;11.10;99.90;;;;;;5004788;28;20144;-70
2022/11/04 05:11:49;;;;;;;16.95;9.60;;;11.10;99.90;;;;;;5004177;28;20059;-70
2022/11/04 05:14:15;;;;;;;14.80;9.07;;;11.10;99.90;;;;;;5007073;28;20621;-70
2022/11/04 05:16:40;;;;;;;16.08;9.45;;;11.10;99.90;;;;;;5004868;28;20096;-70
2022/11/04 05:19:06;;;;;;;13.77;9.48;;;11.20;99.90;;;;;;5003868;28;20385;-70
2022/11/04 05:21:32;;;;;;;12.20;8.98;;;11.10;99.90;;;;;;5005214;28;20054;-70
2022/11/04 05:23:57;;;;;;;13.30;8.40;;;11.20;99.90;;;;;;5003068;28;20444;-70
2022/11/04 05:26:23;;;;;;;16.10;9.00;;;11.20;99.90;;;;;;5002862;28;20037;-70
2022/11/04 05:28:48;;;;;;;14.50;8.70;;;11.30;99.90;;;;;;5002096;28;20904;-70
2022/11/04 05:31:14;;;;;;;10.32;8.52;;;11.30;99.90;;;;;;5003218;28;20038;-70
2022/11/04 05:33:40;;;;;;;15.82;9.45;;;11.20;99.90;;;;;;5003957;28;20022;-70
2022/11/04 05:36:13;;;;;;;14.30;9.38;;;11.30;99.90;;;;;;5002263;28;20038;-70
2022/11/04 05:38:40;;;;;;;13.20;9.03;;;11.30;99.90;;;;;;5003295;28;20573;-70
2022/11/04 05:41:07;;;;;;;16.52;9.77;;;11.30;99.90;;;;;;5005160;28;20022;-69
2022/11/04 05:43:33;;;;;;;15.38;9.52;;;11.30;99.90;;;;;;5003210;28;20521;-69
2022/11/04 05:45:59;;;;;;;15.98;8.93;;;11.30;99.90;;;;;;5004874;28;20683;-69
2022/11/04 05:48:26;;;;;;;12.27;8.38;;;11.30;99.90;;;;;;5002712;28;20030;-69
2022/11/04 05:50:51;;;;;;;12.50;8.90;;;11.40;99.90;;;;;;5004323;28;20046;-69
2022/11/04 05:53:17;;;;;;;13.48;9.52;;;11.40;99.90;;;;;;5006968;28;20410;-69
2022/11/04 05:55:44;;;;;;;17.88;10.35;;;11.40;99.90;;;;;;5003864;28;20038;-69
2022/11/04 05:58:09;;;;;;;19.27;10.63;;;11.40;99.90;;;;;;5005770;28;20045;-69
2022/11/04 06:00:35;;;;;;;12.85;9.23;;;11.40;99.90;;;;;;5002794;28;20778;-70
2022/11/04 06:03:00;;;;;;;15.05;10.35;;;11.40;99.90;;;;;;5003650;28;20034;-70
2022/11/04 06:05:27;;;;;;;13.13;9.10;;;11.30;99.90;;;;;;5003848;28;20113;-69
2022/11/04 06:07:53;;;;;;;14.52;10.10;;;11.30;99.90;;;;;;5005083;28;20030;-70
2022/11/04 06:10:19;;;;;;;12.80;9.77;;;11.40;99.90;;;;;;5004436;28;20038;-70
2022/11/04 06:12:45;;;;;;;16.17;10.30;;;11.40;99.90;;;;;;5006988;28;20504;-70
2022/11/04 06:15:10;;;;;;;16.67;9.88;;;11.40;99.90;;;;;;5003466;28;20030;-70
2022/11/04 06:17:36;;;;;;;14.88;9.48;;;11.40;99.90;;;;;;5003610;28;20029;-70
2022/11/04 06:20:04;;;;;;;12.50;8.95;;;11.40;99.90;;;;;;5002827;28;20029;-70
2022/11/04 06:22:29;;;;;;;15.15;9.27;;;11.40;99.90;;;;;;5003729;28;20072;-70
2022/11/04 06:24:56;;;;;;;15.40;10.13;;;11.40;99.90;;;;;;5004161;28;20761;-70
2022/11/04 06:27:21;;;;;;;15.10;9.38;;;11.40;99.90;;;;;;5000396;28;20038;-70
2022/11/04 06:29:47;;;;;;;14.48;9.27;;;11.40;99.90;;;;;;5004585;28;20037;-70
2022/11/04 06:32:17;;;;;;;16.50;10.15;;;11.40;99.90;;;;;;5003004;28;20033;-69
2022/11/04 06:34:44;;;;;;;13.95;8.82;;;11.50;99.90;;;;;;5003216;28;20088;-71
2022/11/04 06:37:10;;;;;;;16.25;10.20;;;11.50;99.90;;;;;;5001623;28;20034;-70
2022/11/04 06:39:35;;;;;;;14.82;9.52;;;11.50;99.90;;;;;;5003960;28;20028;-70
2022/11/04 06:42:01;;;;;;;16.50;9.52;;;11.50;99.90;;;;;;5005386;28;20034;-78
2022/11/04 06:44:27;;;;;;;15.88;10.23;;;11.60;99.90;;;;;;5007095;28;20100;-77
2022/11/04 06:46:53;;;;;;;13.98;9.48;;;11.60;99.90;;;;;;5005027;28;20035;-74
2022/11/04 06:49:20;;;;;;;15.93;9.85;;;11.60;99.90;;;;;;5001693;28;20053;-73
2022/11/04 06:51:47;;;;;;;14.15;9.50;;;11.70;99.90;;;;;;5001494;28;20536;-72
2022/11/04 06:54:15;;;;;;;13.25;9.07;;;11.70;99.90;;;;;;5002997;28;20061;-77
2022/11/04 06:56:41;;;;;;;15.20;9.73;;;11.80;99.90;;;;;;5003269;28;20393;-77
2022/11/04 06:59:07;;;;;;;14.23;9.30;;;11.80;99.90;;;;;;5002465;28;20298;-77
2022/11/04 07:01:35;;;;;;;14.25;10.32;;;11.90;99.90;;;;;;5003836;28;20066;-77
2022/11/04 07:04:04;;;;;;;13.82;9.90;;;11.90;99.90;;;;;;5002489;28;20018;-77
2022/11/04 07:06:30;;;;;;;16.65;9.52;;;12.00;99.90;;;;;;5003767;28;20040;-77
2022/11/04 07:08:58;;;;;;;15.25;9.52;;;12.00;99.90;;;;;;5002009;28;20034;-76
2022/11/04 07:11:28;;;;;;;12.63;9.05;;;12.00;99.90;;;;;;5004993;28;20045;-79
2022/11/04 07:13:54;;;;;;;13.50;10.40;;;12.10;99.90;;;;;;5003323;28;20030;-80
2022/11/04 07:16:19;;;;;;;13.40;9.45;;;12.20;99.90;;;;;;5006366;28;20038;-79
2022/11/04 07:18:45;;;;;;;13.23;9.73;;;12.20;99.90;;;;;;5004762;28;20041;-80
2022/11/04 07:21:12;;;;;;;13.73;10.05;;;12.30;99.90;;;;;;5004343;28;20065;-79
2022/11/04 07:23:38;;;;;;;13.90;9.38;;;12.30;99.90;;;;;;5002201;28;20018;-82
2022/11/04 07:26:05;;;;;;;12.85;10.13;;;12.40;99.90;;;;;;5003635;28;20034;-81
2022/11/04 07:28:31;;;;;;;15.27;10.68;;;12.40;99.90;;;;;;5004898;28;20033;-82
2022/11/04 07:30:59;;;;;;;15.95;10.10;;;12.40;99.90;;;;;;5013057;28;20438;-80
2022/11/04 07:33:26;;;;;;;13.73;9.95;;;12.50;99.90;;;;;;5003731;28;20198;-80
2022/11/04 07:35:53;;;;;;;15.23;10.40;;;12.50;99.90;;;;;;5004389;28;20113;-81
2022/11/04 07:38:19;;;;;;;13.85;10.40;;;12.60;99.90;;;;;;5009535;28;20026;-80
2022/11/04 07:40:46;;;;;;;16.67;10.23;;;12.60;99.90;;;;;;5004264;28;20023;-81
2022/11/04 07:43:11;;;;;;;12.70;10.30;;;12.60;99.90;;;;;;5005542;28;20041;-80
2022/11/04 07:45:37;;;;;;;14.05;10.38;;;12.60;99.90;;;;;;5000525;28;20044;-79
2022/11/04 07:48:03;;;;;;;13.88;9.68;;;12.70;99.90;;;;;;5004123;28;20084;-77
2022/11/04 07:50:29;;;;;;;14.00;10.55;;;12.70;99.90;;;;;;5002152;28;20033;-78
2022/11/04 07:52:54;;;;;;;14.80;10.50;;;12.80;99.90;;;;;;5002438;28;20118;-78
2022/11/04 07:55:20;;;;;;;13.73;10.10;;;12.80;99.90;;;;;;5002945;28;20038;-77
2022/11/04 07:57:46;;;;;;;16.08;10.20;;;12.90;99.90;;;;;;5002243;28;20030;-78
2022/11/04 08:00:16;;;;;;;15.38;11.48;;;13.00;99.90;;;;;;5003241;28;20058;-78
2022/11/04 08:02:46;;;;;;;18.00;10.70;;;13.00;99.90;;;;;;5002564;28;20042;-78
2022/11/04 08:05:15;;;;;;;12.52;9.95;;;13.10;99.90;;;;;;5004832;28;20137;-83
2022/11/04 08:07:41;;;;;;;13.63;9.70;;;13.20;99.90;;;;;;5002953;28;20030;-78
2022/11/04 08:10:08;;;;;;;14.50;10.40;;;13.30;99.90;;;;;;5005159;28;20030;-76
2022/11/04 08:12:34;;;;;;;14.68;10.30;;;13.30;99.90;;;;;;5006963;28;20073;-77
2022/11/04 08:15:00;;;;;;;15.23;11.02;;;13.40;99.90;;;;;;5002849;28;20053;-79
2022/11/04 08:17:25;;;;;;;13.88;10.27;;;13.40;99.90;;;;;;5001829;28;20386;-81
2022/11/04 08:19:51;;;;;;;15.20;10.45;;;13.40;99.90;;;;;;5006164;28;20034;-83
2022/11/04 08:22:18;;;;;;;12.32;10.32;;;13.40;99.90;;;;;;5006278;28;20098;-84
2022/11/04 08:24:46;;;;;;;15.13;10.23;;;13.50;99.90;;;;;;5029521;28;20015;-84
2022/11/04 08:27:12;;;;;;;12.77;9.85;;;13.50;99.90;;;;;;5015357;28;20045;-82
2022/11/04 08:29:37;;;;;;;15.25;10.65;;;13.50;99.90;;;;;;5010144;28;20022;-81
2022/11/04 08:32:03;;;;;;;14.98;10.63;;;13.50;99.90;;;;;;5010113;28;20117;-81
2022/11/04 08:34:28;;;;;;;14.50;10.60;;;13.60;99.90;;;;;;5010738;28;20033;-81
2022/11/04 08:36:56;;;;;;;15.00;9.73;;;13.60;99.90;;;;;;5010020;28;20034;-81
2022/11/04 08:39:22;;;;;;;14.27;10.32;;;13.70;99.90;;;;;;5008281;28;20021;-82
2022/11/04 08:41:49;;;;;;;11.82;9.88;;;13.70;99.90;;;;;;5008416;28;20036;-81
2022/11/04 08:44:15;;;;;;;15.55;10.85;;;13.70;99.90;;;;;;5009489;28;20061;-81
2022/11/04 08:46:43;;;;;;;14.43;9.65;;;13.80;99.90;;;;;;5011297;28;20040;-80
2022/11/04 08:49:10;;;;;;;15.25;10.90;;;13.80;99.90;;;;;;5011642;28;20033;-81
2022/11/04 08:51:39;;;;;;;16.42;9.02;;;13.80;99.90;;;;;;5011436;28;20052;-82
2022/11/04 08:54:06;;;;;;;12.75;9.27;;;13.90;99.90;;;;;;5010437;28;20087;-81
2022/11/04 08:56:34;;;;;;;13.32;9.82;;;13.90;99.90;;;;;;5009231;28;20055;-82
2022/11/04 08:59:03;;;;;;;13.40;9.30;;;13.90;99.90;;;;;;5007493;28;20121;-77
2022/11/04 09:01:30;;;;;;;12.02;9.30;;;14.00;99.90;;;;;;5014495;28;20033;-81
2022/11/04 09:03:56;;;;;;;13.35;8.30;;;14.00;99.90;;;;;;5006881;28;20022;-79
2022/11/04 09:06:25;;;;;;;14.10;9.07;;;14.00;99.90;;;;;;5005300;28;20030;-79
2022/11/04 09:08:51;;;;;;;10.82;8.27;;;14.10;99.90;;;;;;5006338;28;20022;-81
2022/11/04 09:11:17;;;;;;;14.05;8.77;;;14.10;99.90;;;;;;5006525;28;20489;-80
2022/11/04 09:13:43;;;;;;;14.07;9.20;;;14.10;99.90;;;;;;5006213;28;20022;-83
2022/11/04 09:16:11;;;;;;;10.55;7.50;;;14.00;99.90;;;;;;5009512;28;20029;-80
2022/11/04 09:18:37;;;;;;;11.35;7.15;;;14.00;99.90;;;;;;5007151;28;20121;-72
2022/11/04 09:21:04;;;;;;;10.63;7.28;;;14.00;99.90;;;;;;5005371;28;20522;-77
2022/11/04 09:23:30;;;;;;;11.23;7.43;;;14.00;99.90;;;;;;5004552;28;20025;-82
2022/11/04 09:25:57;;;;;;;9.25;6.57;;;14.00;99.90;;;;;;5003695;28;20034;-81
2022/11/04 09:28:23;;;;;;;10.60;7.68;;;14.00;99.90;;;;;;5004489;28;20555;-78
2022/11/04 09:30:49;;;;;;;10.35;6.53;;;14.00;99.90;;;;;;5004753;28;20408;-77
2022/11/04 09:33:16;;;;;;;12.07;7.13;;;14.00;99.90;;;;;;5002639;28;20036;-74
2022/11/04 09:35:41;;;;;;;10.60;7.15;;;14.10;99.90;;;;;;5004753;28;20033;-76
2022/11/04 09:38:07;;;;;;;8.65;5.95;;;14.10;99.90;;;;;;5004135;28;20030;-76
2022/11/04 09:40:35;;;;;;;8.15;5.97;;;14.10;99.90;;;;;;5004242;28;20033;-75
2022/11/04 09:43:19;;;;;;;11.82;6.57;;;14.20;99.90;;;;;;5002774;28;20519;-77
2022/11/04 09:45:45;;;;;;;10.23;6.78;;;14.20;99.90;;;;;;5005380;28;20049;-77
2022/11/04 09:48:20;;;;;;;9.45;6.22;;;14.20;99.90;;;;;;5000660;28;20418;-77
2022/11/04 09:50:57;;;;;;;6.88;5.63;;;14.20;99.90;;;;;;5005299;28;20102;-78
2022/11/04 09:53:30;;;;;;;13.30;7.22;;;14.30;99.90;;;;;;5004411;28;20022;-77
2022/11/04 09:56:01;;;;;;;8.30;6.38;;;14.30;99.90;;;;;;5005422;28;20060;-76
2022/11/04 09:58:32;;;;;;;8.10;6.32;;;14.30;99.90;;;;;;5006098;28;20097;-77
2022/11/04 10:01:05;;;;;;;10.43;6.22;;;14.30;99.90;;;;;;5005368;28;20088;-80
2022/11/04 10:03:49;;;;;;;8.63;6.03;;;14.30;99.90;;;;;;5006688;28;20034;-79
2022/11/04 10:06:15;;;;;;;9.13;6.13;;;14.40;99.90;;;;;;5004442;28;20048;-80
2022/11/04 10:08:53;;;;;;;9.65;6.82;;;14.40;99.90;;;;;;5006120;28;20718;-78
2022/11/04 10:11:48;;;;;;;9.48;6.68;;;14.30;99.90;;;;;;5003756;28;20042;-79
2022/11/04 10:14:26;;;;;;;10.70;6.65;;;14.30;99.90;;;;;;5008890;28;20034;-78
2022/11/04 10:16:57;;;;;;;10.13;7.25;;;14.40;99.90;;;;;;5005291;28;20456;-80
2022/11/04 10:19:50;;;;;;;8.80;6.60;;;14.30;99.90;;;;;;5005024;28;20034;-80
2022/11/04 10:22:34;;;;;;;10.07;6.78;;;14.40;99.90;;;;;;5008315;28;20040;-79
2022/11/04 10:25:19;;;;;;;10.40;7.18;;;14.30;99.90;;;;;;5009968;28;20030;-77
2022/11/04 10:27:46;;;;;;;12.35;7.00;;;14.30;99.90;;;;;;5009230;28;20033;-79
2022/11/04 10:30:22;;;;;;;7.90;6.25;;;14.30;99.90;;;;;;5005548;28;20033;-80
2022/11/04 10:33:09;;;;;;;8.80;6.97;;;14.40;99.90;;;;;;5003626;28;21756;-80
2022/11/04 10:35:45;;;;;;;8.68;5.85;;;14.40;99.90;;;;;;5005688;28;20037;-81
2022/11/04 10:38:20;;;;;;;9.35;6.85;;;14.40;99.90;;;;;;5004268;28;21743;-81
2022/11/04 10:40:51;;;;;;;7.10;5.75;;;14.40;99.90;;;;;;5004773;28;20034;-80
2022/11/04 10:43:26;;;;;;;7.82;6.18;;;14.40;99.90;;;;;;5005097;28;20512;-82
2022/11/04 10:46:25;;;;;;;7.70;6.57;;;14.40;99.90;;;;;;5009302;28;20049;-81
2022/11/04 10:49:04;;;;;;;8.32;6.95;;;14.40;99.90;;;;;;5028504;28;21512;-80
2022/11/04 10:51:31;;;;;;;9.50;7.47;;;14.40;99.90;;;;;;5005462;28;20050;-79
2022/11/04 10:53:59;;;;;;;8.32;7.30;;;14.40;99.90;;;;;;5015275;28;20515;-78
2022/11/04 10:56:39;;;;;;;10.00;7.05;;;14.30;99.90;;;;;;5006071;28;20030;-78
2022/11/04 10:59:40;;;;;;;9.35;7.00;;;14.20;99.90;;;;;;5004999;28;20397;-78
2022/11/04 11:02:05;;;;;;;10.25;6.95;;;14.20;99.90;;;;;;5005360;28;20030;-78
2022/11/04 11:04:34;;;;;;;8.43;6.57;;;14.10;99.90;;;;;;5006850;28;22165;-78
2022/11/04 11:07:06;;;;;;;16.05;7.60;;;14.10;99.90;;;;;;5005112;28;20030;-78
2022/11/04 11:09:35;;;;;;;9.18;6.63;;;14.10;99.90;;;;;;5005852;28;20277;-79
2022/11/04 11:12:05;;;;;;;12.77;7.10;;;14.10;99.90;;;;;;5005630;28;20529;-79
2022/11/04 11:14:32;;;;;;;10.10;7.10;;;14.10;99.90;;;;;;5005984;28;20053;-79
2022/11/04 11:17:36;;;;;;;8.95;7.60;;;14.10;99.90;;;;;;5006716;28;20089;-80
2022/11/04 11:20:22;;;;;;;8.82;6.68;;;14.00;99.90;;;;;;5003237;28;20477;-79
2022/11/04 11:22:53;;;;;;;9.65;6.90;;;14.00;99.90;;;;;;5003873;28;20389;-80
2022/11/04 11:25:22;;;;;;;9.35;6.80;;;14.00;99.90;;;;;;5004865;28;20481;-79
2022/11/04 11:27:52;;;;;;;11.00;7.35;;;14.00;99.90;;;;;;5004096;28;20058;-80
2022/11/04 11:30:24;;;;;;;10.02;7.07;;;14.00;99.90;;;;;;5006144;28;20489;-80
2022/11/04 11:33:07;;;;;;;10.15;7.43;;;14.00;99.90;;;;;;5003700;28;20034;-79
2022/11/04 11:35:40;;;;;;;9.70;6.60;;;14.00;99.90;;;;;;5003454;28;20559;-78
2022/11/04 11:38:28;;;;;;;8.80;6.65;;;14.10;99.90;;;;;;5002096;28;20112;-78
2022/11/04 11:41:11;;;;;;;13.70;7.45;;;14.10;99.90;;;;;;5003781;28;20505;-77
2022/11/04 11:43:48;;;;;;;9.35;6.55;;;14.00;99.90;;;;;;5003007;28;20054;-78
2022/11/04 11:46:24;;;;;;;9.77;7.53;;;14.00;99.90;;;;;;5003862;28;20044;-77
2022/11/04 11:48:52;;;;;;;10.05;7.28;;;14.00;99.90;;;;;;5001422;28;20056;-77
2022/11/04 11:51:28;;;;;;;9.52;7.18;;;14.00;99.90;;;;;;5000826;28;20129;-75
2022/11/04 11:54:21;;;;;;;8.48;7.38;;;13.90;99.90;;;;;;5001492;28;20068;-75
2022/11/04 11:56:54;;;;;;;9.60;7.28;;;13.90;99.90;;;;;;5002093;28;20029;-74
2022/11/04 11:59:47;;;;;;;7.80;7.00;;;13.90;99.90;;;;;;4999916;28;20393;-72
2022/11/04 12:02:24;;;;;;;12.27;8.02;;;13.90;99.90;;;;;;5003366;28;20046;-74
2022/11/04 12:04:50;;;;;;;8.48;7.07;;;13.80;99.90;;;;;;5005482;28;20122;-74
2022/11/04 12:07:32;;;;;;;9.70;7.25;;;13.80;99.90;;;;;;5006616;28;20088;-77
2022/11/04 12:10:19;;;;;;;8.85;7.07;;;13.80;99.90;;;;;;5005575;28;20037;-75
2022/11/04 12:12:55;;;;;;;10.38;7.60;;;13.80;99.90;;;;;;5005465;28;20075;-74
2022/11/04 12:15:51;;;;;;;10.05;8.32;;;13.80;99.90;;;;;;5009729;28;20694;-73
2022/11/04 12:18:49;;;;;;;7.93;6.93;;;13.80;99.90;;;;;;5007865;28;20129;-76
2022/11/04 12:21:32;;;;;;;10.35;6.93;;;13.80;99.90;;;;;;5004355;28;20736;-74
2022/11/04 12:24:04;;;;;;;10.20;7.95;;;13.80;99.90;;;;;;5007098;28;20088;-74
2022/11/04 12:26:42;;;;;;;11.18;8.25;;;13.90;99.90;;;;;;5006393;28;20076;-74
2022/11/04 12:29:36;;;;;;;9.20;8.13;;;13.80;99.90;;;;;;5005801;28;20060;-75
2022/11/04 12:32:30;;;;;;;9.43;7.55;;;13.80;99.90;;;;;;5004390;28;20416;-75
2022/11/04 12:35:16;;;;;;;9.53;8.13;;;13.80;99.90;;;;;;5004061;28;20038;-75
2022/11/04 12:37:51;;;;;;;9.20;7.82;;;13.70;99.90;;;;;;5003247;28;20679;-75
2022/11/04 12:40:25;;;;;;;9.02;7.13;;;13.70;99.90;;;;;;5005308;28;20041;-75
2022/11/04 12:43:15;;;;;;;8.38;7.43;;;13.70;99.90;;;;;;5004184;28;20060;-75
2022/11/04 12:46:11;;;;;;;8.43;7.40;;;13.70;99.90;;;;;;5007819;28;20057;-75
2022/11/04 12:48:59;;;;;;;8.82;6.75;;;13.70;99.90;;;;;;5004257;28;20032;-75
2022/11/04 12:51:45;;;;;;;8.80;7.55;;;13.60;99.90;;;;;;5005637;28;20140;-75
2022/11/04 12:54:30;;;;;;;7.75;6.72;;;13.60;99.90;;;;;;5004565;28;20035;-70
2022/11/04 12:57:12;;;;;;;8.77;6.90;;;13.60;99.90;;;;;;5005482;28;20023;-76
2022/11/04 12:59:50;;;;;;;9.40;7.32;;;13.60;99.90;;;;;;5005151;28;20036;-80
2022/11/04 13:02:19;;;;;;;8.98;6.93;;;13.60;99.90;;;;;;5005636;28;20029;-81
2022/11/04 13:04:55;;;;;;;8.23;7.35;;;13.60;99.90;;;;;;5002798;28;20029;-81
2022/11/04 13:07:45;;;;;;;9.07;7.43;;;13.60;99.90;;;;;;5005155;28;20038;-80
2022/11/04 13:10:24;;;;;;;9.95;8.05;;;13.60;99.90;;;;;;5004755;28;20038;-81
2022/11/04 13:12:52;;;;;;;10.02;7.68;;;13.50;99.90;;;;;;5025609;28;20057;-79
2022/11/04 13:15:22;;;;;;;8.73;6.93;;;13.50;99.90;;;;;;5018821;28;20034;-76
2022/11/04 13:17:57;;;;;;;9.40;6.72;;;13.50;99.90;;;;;;5003841;28;20026;-78
2022/11/04 13:20:42;;;;;;;10.73;6.95;;;13.60;99.90;;;;;;5006235;28;20068;-76
2022/11/04 13:23:15;;;;;;;;;;;13.50;99.90;;;;;;5006207;28;20030;-76
2022/11/04 13:25:43;;;;;;;8.95;6.55;;;13.50;99.90;;;;;;5005320;28;20355;-77
2022/11/04 13:28:15;;;;;;;10.68;7.75;;;13.50;99.90;;;;;;5005978;28;20042;-76
2022/11/04 13:30:48;;;;;;;8.73;7.50;;;13.50;99.90;;;;;;5006002;28;20129;-77
2022/11/04 13:33:32;;;;;;;8.60;7.13;;;13.40;99.90;;;;;;5003266;28;20040;-76
2022/11/04 13:36:00;;;;;;;9.38;6.82;;;13.40;99.90;;;;;;5002632;28;21506;-77